Time;durP1;ratioP1;P1;durP2;ratioP2;P2;SDS_P1;SDS_P2;PMS_P1;PMS_P2;Temp;Humidity;BMP_temperature;BMP_pressure;BME280_temperature;BME280_humidity;BME280_pressure;Samples;Min_cycle;Max_cycle;Signal;HPM_P1;HPM_P2
2023/10/22 00:01:28;;;;;;;51.87;30.83;;;10.60;99.90;;;;;;4991059;28;20200;-77
2023/10/22 00:04:06;;;;;;;47.23;28.43;;;10.60;99.90;;;;;;4973957;28;20228;-78
2023/10/22 00:06:53;;;;;;;47.60;28.70;;;10.70;99.90;;;;;;4991836;28;20228;-80
2023/10/22 00:09:26;;;;;;;43.67;27.63;;;10.70;99.90;;;;;;5016293;28;20200;-80
2023/10/22 00:12:21;;;;;;;47.50;27.10;;;10.70;99.90;;;;;;5033253;28;20219;-78
2023/10/22 00:15:06;;;;;;;43.37;27.40;;;10.90;99.90;;;;;;5031393;28;20275;-79
2023/10/22 00:17:53;;;;;;;45.70;27.80;;;10.70;99.90;;;;;;4918172;29;20231;-77
2023/10/22 00:20:36;;;;;;;44.77;27.00;;;10.70;99.90;;;;;;4933301;29;20214;-77
2023/10/22 00:23:14;;;;;;;44.10;27.50;;;10.70;99.90;;;;;;4917852;29;20217;-78
2023/10/22 00:25:49;;;;;;;43.43;27.33;;;10.70;99.90;;;;;;4917999;29;20289;-80
2023/10/22 00:28:38;;;;;;;42.77;27.20;;;10.80;99.90;;;;;;4919547;29;20701;-80
2023/10/22 00:31:43;;;;;;;42.53;27.53;;;10.70;99.90;;;;;;4919353;29;20582;-80
2023/10/22 00:34:44;;;;;;;40.83;25.97;;;10.70;99.90;;;;;;4932708;29;20684;-80
2023/10/22 00:37:46;;;;;;;41.27;25.90;;;10.70;99.90;;;;;;4932442;29;20293;-81
2023/10/22 00:40:34;;;;;;;43.93;27.53;;;10.70;99.90;;;;;;4931507;29;20199;-80
2023/10/22 00:43:18;;;;;;;45.50;26.53;;;10.70;99.90;;;;;;4933004;29;20207;-80
2023/10/22 00:46:19;;;;;;;43.03;27.90;;;10.60;99.90;;;;;;4933279;29;20239;-81
2023/10/22 00:48:52;;;;;;;49.70;28.57;;;10.60;99.90;;;;;;4980618;28;20231;-79
2023/10/22 00:51:32;;;;;;;46.17;27.83;;;10.60;99.90;;;;;;5033420;28;20223;-78
2023/10/22 00:54:11;;;;;;;46.50;27.90;;;10.50;99.90;;;;;;5031001;28;20203;-79
2023/10/22 00:57:05;;;;;;;46.40;28.50;;;10.50;99.90;;;;;;5032527;28;20190;-79
2023/10/22 00:59:38;;;;;;;42.90;27.57;;;10.40;99.90;;;;;;5030113;28;20222;-79
2023/10/22 01:02:45;;;;;;;46.43;28.20;;;10.40;99.90;;;;;;5032514;28;20198;-80
2023/10/22 01:05:28;;;;;;;50.37;28.90;;;10.40;99.90;;;;;;4999124;28;20257;-80
2023/10/22 01:07:58;;;;;;;47.10;27.27;;;10.30;99.90;;;;;;5011685;28;20204;-76
2023/10/22 01:10:58;;;;;;;48.93;28.03;;;10.60;99.90;;;;;;4988445;28;20226;-79
2023/10/22 01:13:48;;;;;;;44.63;28.10;;;10.30;99.90;;;;;;5009457;28;20207;-78
2023/10/22 01:16:23;;;;;;;41.23;27.07;;;10.50;99.90;;;;;;4999158;28;20198;-79
2023/10/22 01:19:15;;;;;;;41.90;27.20;;;10.30;99.90;;;;;;4988192;28;20223;-80
2023/10/22 01:22:11;;;;;;;43.70;26.57;;;10.60;99.90;;;;;;5012185;28;20668;-80
2023/10/22 01:25:14;;;;;;;46.43;27.77;;;10.50;99.90;;;;;;5031121;28;20245;-79
2023/10/22 01:27:43;;;;;;;45.33;27.47;;;10.50;99.90;;;;;;5014677;28;20199;-81
2023/10/22 01:30:14;;;;;;;49.97;28.23;;;10.30;99.90;;;;;;4998193;28;20203;-81
2023/10/22 01:33:02;;;;;;;42.63;27.07;;;10.40;99.90;;;;;;5032285;28;20732;-80
2023/10/22 01:35:35;;;;;;;47.37;27.27;;;10.40;99.90;;;;;;5014468;28;20568;-80
2023/10/22 01:41:16;;;;;;;46.50;27.70;;;10.40;99.90;;;;;;5031742;28;20186;-80
2023/10/22 01:44:12;;;;;;;45.13;27.10;;;10.30;99.90;;;;;;5025236;28;20206;-80
2023/10/22 01:47:00;;;;;;;43.93;26.57;;;10.30;99.90;;;;;;5014876;28;20196;-77
2023/10/22 01:49:43;;;;;;;45.20;27.37;;;10.20;99.90;;;;;;5011760;28;20237;-80
2023/10/22 01:52:34;;;;;;;40.53;25.20;;;10.20;99.90;;;;;;5032071;28;20219;-79
2023/10/22 01:55:32;;;;;;;43.17;25.53;;;10.60;99.90;;;;;;4999292;28;20209;-81
2023/10/22 01:58:35;;;;;;;46.60;26.50;;;10.60;99.90;;;;;;5015059;28;20191;-81
2023/10/22 02:01:09;;;;;;;40.60;25.90;;;10.80;99.90;;;;;;5006977;28;20201;-80
2023/10/22 02:04:16;;;;;;;45.80;26.37;;;10.70;99.90;;;;;;5014380;28;20204;-80
2023/10/22 02:07:11;;;;;;;45.60;27.20;;;10.80;99.90;;;;;;5029539;28;20188;-79
2023/10/22 02:09:46;;;;;;;48.83;27.43;;;10.70;99.90;;;;;;5013335;28;20314;-79
2023/10/22 02:12:34;;;;;;;44.20;25.73;;;10.80;99.90;;;;;;4997430;28;20580;-79
2023/10/22 02:15:03;;;;;;;42.83;25.67;;;10.60;99.90;;;;;;5031397;28;20281;-78
2023/10/22 02:17:37;;;;;;;42.07;25.60;;;10.50;99.90;;;;;;5013220;28;20227;-80
2023/10/22 02:20:52;;;;;;;45.53;25.53;;;10.60;99.90;;;;;;5014632;28;20214;-80
2023/10/22 02:23:46;;;;;;;42.53;24.60;;;10.90;99.90;;;;;;5007211;28;20296;-79
2023/10/22 02:26:34;;;;;;;42.63;24.73;;;10.60;99.90;;;;;;5015107;28;20190;-78
2023/10/22 02:29:39;;;;;;;42.90;25.33;;;10.60;99.90;;;;;;5010556;28;20215;-79
2023/10/22 02:32:15;;;;;;;42.53;25.03;;;10.60;99.90;;;;;;4993739;28;20224;-78
2023/10/22 02:35:13;;;;;;;42.53;24.53;;;10.60;99.90;;;;;;4979028;28;20247;-78
2023/10/22 02:37:57;;;;;;;48.60;24.80;;;10.50;99.90;;;;;;4993964;28;20203;-77
2023/10/22 02:41:02;;;;;;;47.03;24.30;;;10.60;99.90;;;;;;5011752;28;20192;-79
2023/10/22 02:43:31;;;;;;;39.87;23.53;;;10.70;99.90;;;;;;4994191;28;20235;-77
2023/10/22 02:46:05;;;;;;;41.70;23.17;;;10.70;99.90;;;;;;5011203;28;20195;-78
2023/10/22 02:48:42;;;;;;;40.03;23.67;;;10.70;99.90;;;;;;4993939;28;20623;-79
2023/10/22 02:51:23;;;;;;;39.60;23.87;;;10.80;99.90;;;;;;5011591;28;20751;-80
2023/10/22 02:53:58;;;;;;;40.20;23.43;;;10.60;99.90;;;;;;5011573;28;20192;-80
2023/10/22 02:56:46;;;;;;;37.23;22.10;;;10.90;99.90;;;;;;4988962;28;20339;-78
2023/10/22 02:59:25;;;;;;;36.97;23.07;;;10.80;99.90;;;;;;5011617;28;20636;-79
2023/10/22 03:01:56;;;;;;;39.10;22.60;;;10.60;99.90;;;;;;5009320;28;20287;-79
2023/10/22 03:04:48;;;;;;;45.10;23.10;;;10.80;99.90;;;;;;5008300;28;20204;-76
2023/10/22 03:07:34;;;;;;;38.23;21.53;;;10.80;99.90;;;;;;5010451;28;20236;-80
2023/10/22 03:10:09;;;;;;;31.00;19.90;;;10.80;99.90;;;;;;4994043;28;20198;-77
2023/10/22 03:12:40;;;;;;;31.43;19.20;;;10.70;99.90;;;;;;5009994;28;20212;-77
2023/10/22 03:15:32;;;;;;;30.63;18.83;;;10.60;99.90;;;;;;4989004;28;20278;-83
2023/10/22 03:18:05;;;;;;;27.17;17.87;;;10.50;99.90;;;;;;4977480;28;20302;-82
2023/10/22 03:20:47;;;;;;;23.33;15.30;;;10.60;99.90;;;;;;4979553;28;20223;-82
2023/10/22 03:23:18;;;;;;;28.93;13.87;;;10.70;99.90;;;;;;5011752;28;20239;-82
2023/10/22 03:26:15;;;;;;;20.90;13.00;;;10.80;99.90;;;;;;5010654;28;20204;-81
2023/10/22 03:28:52;;;;;;;22.10;13.00;;;11.10;99.90;;;;;;5011542;28;20627;-82
2023/10/22 03:31:38;;;;;;;22.87;13.40;;;10.90;99.90;;;;;;4997725;28;20212;-81
2023/10/22 03:34:12;;;;;;;21.40;13.53;;;10.90;99.90;;;;;;4996798;28;20348;-80
2023/10/22 03:37:08;;;;;;;19.07;14.10;;;11.00;99.90;;;;;;4965615;28;20204;-81
2023/10/22 03:40:06;;;;;;;27.03;15.00;;;10.80;99.90;;;;;;4953483;29;20285;-81
2023/10/22 03:42:55;;;;;;;21.03;14.00;;;10.90;99.90;;;;;;4937163;29;20378;-81
2023/10/22 03:45:37;;;;;;;20.17;13.97;;;10.90;99.90;;;;;;4953306;29;20206;-76
2023/10/22 03:48:17;;;;;;;19.00;13.63;;;10.90;99.90;;;;;;4938186;29;20222;-78
2023/10/22 03:50:57;;;;;;;21.60;13.83;;;10.90;99.90;;;;;;4880579;29;20239;-79
2023/10/22 03:53:43;;;;;;;19.07;12.97;;;10.90;99.90;;;;;;4896489;29;20330;-78
2023/10/22 03:56:24;;;;;;;19.53;11.43;;;11.00;99.90;;;;;;4881611;29;20701;-79
2023/10/22 03:59:19;;;;;;;17.80;11.60;;;10.90;99.90;;;;;;4895183;29;20254;-78
2023/10/22 04:01:55;;;;;;;16.20;11.03;;;10.90;99.90;;;;;;4880967;29;20299;-79
2023/10/22 04:04:31;;;;;;;15.23;10.47;;;11.00;99.90;;;;;;4896691;29;20819;-79
2023/10/22 04:07:03;;;;;;;16.30;10.43;;;10.90;99.90;;;;;;4896030;29;20676;-77
2023/10/22 04:09:34;;;;;;;13.73;9.53;;;10.80;99.90;;;;;;4896672;29;20204;-78
2023/10/22 04:12:33;;;;;;;14.47;9.93;;;10.90;99.90;;;;;;4894363;29;20236;-77
2023/10/22 04:15:04;;;;;;;14.33;9.43;;;10.90;99.90;;;;;;4915070;29;20600;-79
2023/10/22 04:17:32;;;;;;;13.17;9.20;;;10.90;99.90;;;;;;4975994;28;20220;-78
2023/10/22 04:20:13;;;;;;;12.73;8.53;;;10.90;99.90;;;;;;4996319;28;20204;-79
2023/10/22 04:22:51;;;;;;;10.30;7.80;;;10.90;99.90;;;;;;4996652;28;20204;-78
2023/10/22 04:25:45;;;;;;;11.80;7.80;;;10.80;99.90;;;;;;5013840;28;20644;-78
2023/10/22 04:28:14;;;;;;;9.00;7.40;;;10.80;99.90;;;;;;4996423;28;20671;-79
2023/10/22 04:30:59;;;;;;;9.83;7.90;;;10.80;99.90;;;;;;4995775;28;20206;-78
2023/10/22 04:33:31;;;;;;;9.67;7.27;;;10.70;99.90;;;;;;5012990;28;20216;-78
2023/10/22 04:36:17;;;;;;;11.10;7.97;;;10.90;99.90;;;;;;5013601;28;20267;-78
2023/10/22 04:38:53;;;;;;;11.40;7.53;;;11.10;99.90;;;;;;5013672;28;20231;-80
2023/10/22 04:41:25;;;;;;;10.03;7.27;;;11.00;99.90;;;;;;4995488;28;20215;-78
2023/10/22 04:44:05;;;;;;;9.37;6.33;;;11.00;99.90;;;;;;4994956;28;20210;-78
2023/10/22 04:46:45;;;;;;;10.47;6.90;;;11.00;99.90;;;;;;4995403;28;20662;-78
2023/10/22 04:49:31;;;;;;;8.57;6.50;;;11.10;99.90;;;;;;5013098;28;20227;-77
2023/10/22 04:52:09;;;;;;;9.53;5.93;;;11.10;99.90;;;;;;4996860;28;20216;-80
2023/10/22 04:54:56;;;;;;;8.17;5.90;;;11.10;99.90;;;;;;4995123;28;20221;-78
2023/10/22 04:57:27;;;;;;;6.93;5.30;;;11.20;99.90;;;;;;4996095;28;20200;-79
2023/10/22 05:00:03;;;;;;;8.13;5.80;;;11.10;99.90;;;;;;5012167;28;20686;-78
2023/10/22 05:02:34;;;;;;;7.03;5.50;;;11.20;99.90;;;;;;5011875;28;20694;-79
2023/10/22 05:05:04;;;;;;;7.53;5.27;;;11.30;99.90;;;;;;5012883;28;20220;-78
2023/10/22 05:07:38;;;;;;;7.63;5.00;;;11.20;99.90;;;;;;4995444;28;20220;-77
2023/10/22 05:10:09;;;;;;;6.47;4.97;;;11.20;99.90;;;;;;5013213;28;20199;-79
2023/10/22 05:13:24;;;;;;;7.83;5.27;;;11.20;99.90;;;;;;4935920;29;20230;-78
2023/10/22 05:16:10;;;;;;;6.57;4.97;;;11.20;99.90;;;;;;4857285;29;20205;-78
2023/10/22 05:18:44;;;;;;;11.20;5.67;;;11.20;99.90;;;;;;4858173;29;20293;-77
2023/10/22 05:21:30;;;;;;;11.40;5.80;;;11.40;99.90;;;;;;4854974;29;20253;-76
2023/10/22 05:24:18;;;;;;;9.23;5.43;;;11.40;99.90;;;;;;4856498;29;20705;-77
2023/10/22 05:26:58;;;;;;;6.67;4.97;;;11.40;99.90;;;;;;4856692;29;20285;-76
2023/10/22 05:29:37;;;;;;;7.77;5.03;;;11.40;99.90;;;;;;4858104;29;20205;-78
2023/10/22 05:32:24;;;;;;;12.93;5.43;;;11.20;99.90;;;;;;4855932;29;20236;-79
2023/10/22 05:35:08;;;;;;;13.43;5.80;;;11.10;99.90;;;;;;4837346;29;20241;-80
2023/10/22 05:38:23;;;;;;;6.17;4.43;;;11.00;99.90;;;;;;4836065;29;20771;-77
2023/10/22 05:41:29;;;;;;;5.33;4.13;;;11.10;99.90;;;;;;4839392;29;20210;-77
2023/10/22 05:44:01;;;;;;;5.87;4.20;;;11.00;99.90;;;;;;4766651;30;20220;-77
2023/10/22 05:47:02;;;;;;;5.77;4.10;;;11.10;99.90;;;;;;4730024;30;20591;-77
2023/10/22 05:49:48;;;;;;;6.03;3.83;;;10.90;99.90;;;;;;4731660;30;20206;-79
2023/10/22 05:53:02;;;;;;;4.77;4.00;;;11.10;99.90;;;;;;4721480;29;20235;-79
2023/10/22 05:56:06;;;;;;;4.93;3.70;;;11.10;99.90;;;;;;4794999;29;20698;-79
2023/10/22 05:58:37;;;;;;;5.10;3.63;;;11.10;99.90;;;;;;4805198;29;20215;-78
2023/10/22 06:01:19;;;;;;;7.67;3.70;;;11.00;99.90;;;;;;4820718;29;20751;-80
2023/10/22 06:04:03;;;;;;;5.60;3.67;;;11.00;99.90;;;;;;4820895;29;20305;-79
2023/10/22 06:06:54;;;;;;;4.97;3.57;;;11.00;99.90;;;;;;4821017;29;20197;-81
2023/10/22 06:09:31;;;;;;;5.33;3.67;;;11.00;99.90;;;;;;4819128;29;20293;-78
2023/10/22 06:12:11;;;;;;;8.00;3.67;;;11.00;99.90;;;;;;4819627;29;20325;-79
2023/10/22 06:14:38;;;;;;;4.33;3.30;;;11.00;99.90;;;;;;4805105;29;20218;-79
2023/10/22 06:17:16;;;;;;;4.03;3.00;;;11.00;99.90;;;;;;4799675;29;20690;-78
2023/10/22 06:19:55;;;;;;;4.67;3.17;;;11.00;99.90;;;;;;4782292;29;20215;-77
2023/10/22 06:22:31;;;;;;;2.87;2.57;;;11.30;99.90;;;;;;4869566;29;20208;-79
2023/10/22 06:25:01;;;;;;;3.53;2.70;;;11.20;99.90;;;;;;4949237;29;20205;-77
2023/10/22 06:27:31;;;;;;;4.60;2.90;;;11.00;99.90;;;;;;4951169;29;20234;-78
2023/10/22 06:30:22;;;;;;;3.50;2.73;;;11.00;99.90;;;;;;4874414;29;20213;-78
2023/10/22 06:33:17;;;;;;;7.40;2.97;;;11.00;99.90;;;;;;4856119;29;20370;-79
2023/10/22 06:35:51;;;;;;;4.33;2.80;;;11.10;99.90;;;;;;4853424;29;20247;-78
2023/10/22 06:38:40;;;;;;;4.60;2.73;;;11.00;99.90;;;;;;4856797;29;20219;-77
2023/10/22 06:41:25;;;;;;;3.67;2.60;;;11.30;99.90;;;;;;4855525;29;20670;-76
2023/10/22 06:46:59;;;;;;;3.03;2.57;;;11.00;99.90;;;;;;4854185;29;20685;-78
2023/10/22 06:49:38;;;;;;;4.50;2.57;;;11.10;99.90;;;;;;4856258;29;20284;-77
2023/10/22 06:52:19;;;;;;;4.60;2.73;;;11.10;99.90;;;;;;4893513;29;20263;-76
2023/10/22 06:54:50;;;;;;;4.57;2.60;;;11.20;99.90;;;;;;4856275;29;20233;-77
2023/10/22 06:57:46;;;;;;;3.83;2.57;;;11.00;99.90;;;;;;4854034;29;20399;-79
2023/10/22 07:00:42;;;;;;;10.93;2.97;;;11.10;99.90;;;;;;4856423;29;20217;-77
2023/10/22 07:03:25;;;;;;;4.23;3.03;;;11.20;99.90;;;;;;4856390;29;20723;-78
2023/10/22 07:06:06;;;;;;;3.37;2.73;;;11.10;99.90;;;;;;4857259;29;20311;-79
2023/10/22 07:08:46;;;;;;;3.83;2.80;;;11.00;99.90;;;;;;4927061;29;20211;-79
2023/10/22 07:11:33;;;;;;;7.07;3.20;;;10.80;99.90;;;;;;4952426;29;20249;-78
2023/10/22 07:14:15;;;;;;;5.17;3.00;;;11.10;99.90;;;;;;4951222;29;20213;-78
2023/10/22 07:16:58;;;;;;;4.87;3.10;;;11.10;99.90;;;;;;4954779;29;20198;-78
2023/10/22 07:19:29;;;;;;;8.37;5.43;;;11.20;99.90;;;;;;4974366;28;20223;-78
2023/10/22 07:22:05;;;;;;;5.20;3.60;;;11.10;99.90;;;;;;4994247;28;20656;-77
2023/10/22 07:24:47;;;;;;;5.17;3.40;;;11.20;99.90;;;;;;4995430;28;20598;-77
2023/10/22 07:27:29;;;;;;;3.73;2.70;;;11.20;99.90;;;;;;4978588;28;20181;-76
2023/10/22 07:30:13;;;;;;;3.83;2.73;;;11.20;99.90;;;;;;4945706;28;20205;-78
2023/10/22 07:32:59;;;;;;;3.70;2.80;;;11.20;99.90;;;;;;4995259;28;20220;-76
2023/10/22 07:35:30;;;;;;;4.20;2.83;;;11.20;99.90;;;;;;4972650;28;20267;-81
2023/10/22 07:38:00;;;;;;;3.20;2.60;;;11.20;99.90;;;;;;5014850;28;20236;-76
2023/10/22 07:40:44;;;;;;;3.63;2.63;;;11.30;99.90;;;;;;4979092;28;20568;-77
2023/10/22 07:43:24;;;;;;;2.93;2.50;;;11.30;99.90;;;;;;4996154;28;20658;-80
2023/10/22 07:46:04;;;;;;;3.93;2.63;;;11.30;99.90;;;;;;5010402;28;20193;-79
2023/10/22 07:48:50;;;;;;;10.47;3.80;;;11.20;99.90;;;;;;4950036;28;20304;-78
2023/10/22 07:51:26;;;;;;;3.93;2.67;;;11.30;99.90;;;;;;5013940;28;20654;-75
2023/10/22 07:54:19;;;;;;;3.00;2.53;;;11.40;99.90;;;;;;4990091;28;20646;-77
2023/10/22 07:57:32;;;;;;;3.93;2.70;;;11.20;99.90;;;;;;4981536;28;20204;-75
2023/10/22 08:00:11;;;;;;;3.53;2.80;;;11.30;99.90;;;;;;4995976;28;20218;-80
2023/10/22 08:02:45;;;;;;;3.70;2.90;;;11.30;99.90;;;;;;5012702;28;20220;-76
2023/10/22 08:05:21;;;;;;;4.37;2.77;;;11.40;99.90;;;;;;4995759;28;20196;-77
2023/10/22 08:08:01;;;;;;;3.87;2.73;;;11.30;99.90;;;;;;5013571;28;20195;-80
2023/10/22 08:10:47;;;;;;;3.73;2.57;;;11.50;99.90;;;;;;5013419;28;20192;-79
2023/10/22 08:13:27;;;;;;;4.40;2.60;;;11.40;99.90;;;;;;4995147;28;20216;-79
2023/10/22 08:16:34;;;;;;;3.60;2.80;;;11.40;99.90;;;;;;4980296;28;20187;-77
2023/10/22 08:19:19;;;;;;;3.93;2.80;;;11.60;99.90;;;;;;5013096;28;20323;-79
2023/10/22 08:22:08;;;;;;;9.67;3.30;;;11.60;99.90;;;;;;4981350;28;20196;-78
2023/10/22 08:24:48;;;;;;;3.37;2.10;;;11.50;99.90;;;;;;5012305;28;20196;-80
2023/10/22 08:27:32;;;;;;;2.67;2.23;;;11.40;99.90;;;;;;4979670;28;20558;-74
2023/10/22 08:30:28;;;;;;;6.50;2.33;;;11.40;99.90;;;;;;5006794;28;20199;-76
2023/10/22 08:32:57;;;;;;;3.77;2.37;;;11.60;99.90;;;;;;4980173;28;20367;-77
2023/10/22 08:35:38;;;;;;;3.70;2.37;;;11.50;99.90;;;;;;4994537;28;20601;-76
2023/10/22 08:38:34;;;;;;;2.40;2.20;;;11.40;99.90;;;;;;5011507;28;20176;-80
2023/10/22 08:41:23;;;;;;;2.97;1.97;;;11.50;99.90;;;;;;4955298;28;20720;-79
2023/10/22 08:44:18;;;;;;;5.43;2.77;;;11.50;99.90;;;;;;4956492;28;20193;-77
2023/10/22 08:47:21;;;;;;;5.70;2.90;;;11.50;99.90;;;;;;4940998;28;20229;-79
2023/10/22 08:49:58;;;;;;;2.77;2.30;;;11.80;99.90;;;;;;4971193;28;20202;-79
2023/10/22 08:52:40;;;;;;;3.10;2.20;;;11.50;99.90;;;;;;4956413;28;20216;-78
2023/10/22 08:55:51;;;;;;;2.37;2.10;;;11.70;99.90;;;;;;4971876;28;20212;-75
2023/10/22 08:58:39;;;;;;;3.30;2.13;;;11.60;99.90;;;;;;4970784;28;20229;-74
2023/10/22 09:01:18;;;;;;;8.07;3.20;;;11.50;99.90;;;;;;4971272;28;20237;-75
2023/10/22 09:04:00;;;;;;;3.00;2.43;;;11.50;99.90;;;;;;4940491;28;20233;-76
2023/10/22 09:06:31;;;;;;;2.50;2.20;;;11.50;99.90;;;;;;4954684;28;20780;-76
2023/10/22 09:09:03;;;;;;;3.17;2.50;;;11.60;99.90;;;;;;4971843;28;20236;-75
2023/10/22 09:11:57;;;;;;;3.33;2.30;;;11.60;99.90;;;;;;4965673;28;20204;-75
2023/10/22 09:14:36;;;;;;;3.57;2.40;;;11.50;99.90;;;;;;4993344;28;20624;-76
2023/10/22 09:17:18;;;;;;;4.80;2.67;;;11.60;99.90;;;;;;5015540;28;20666;-76
2023/10/22 09:19:52;;;;;;;4.10;2.70;;;11.60;99.90;;;;;;4994912;28;20640;-77
2023/10/22 09:22:29;;;;;;;14.03;3.33;;;11.60;99.90;;;;;;5011537;28;20204;-77
2023/10/22 09:25:10;;;;;;;3.43;2.50;;;11.80;99.90;;;;;;4994324;28;20219;-76
2023/10/22 09:27:55;;;;;;;4.93;2.77;;;11.60;99.90;;;;;;4992245;28;20198;-76
2023/10/22 09:30:40;;;;;;;4.10;3.00;;;11.60;99.90;;;;;;5012096;28;20203;-78
2023/10/22 09:33:56;;;;;;;4.07;3.03;;;11.70;99.90;;;;;;4993870;28;20236;-76
2023/10/22 09:36:33;;;;;;;6.47;3.20;;;12.00;99.90;;;;;;4972865;28;20255;-78
2023/10/22 09:39:39;;;;;;;8.20;3.60;;;11.80;99.90;;;;;;4972641;28;20569;-78
2023/10/22 09:42:17;;;;;;;4.87;3.30;;;11.70;99.90;;;;;;4958806;28;20591;-78
2023/10/22 09:45:04;;;;;;;10.80;4.57;;;11.80;99.90;;;;;;4992223;28;20294;-79
2023/10/22 09:47:43;;;;;;;6.43;3.30;;;11.80;99.90;;;;;;4975883;28;20209;-77
2023/10/22 09:50:26;;;;;;;5.13;3.53;;;11.80;99.90;;;;;;4991140;28;20231;-76
2023/10/22 09:52:57;;;;;;;4.97;3.50;;;11.90;99.90;;;;;;4974403;28;20319;-79
2023/10/22 09:55:46;;;;;;;9.33;4.00;;;12.10;99.90;;;;;;4957626;28;20196;-78
2023/10/22 09:58:44;;;;;;;7.20;4.10;;;11.90;99.90;;;;;;4990643;28;20193;-77
2023/10/22 10:01:13;;;;;;;5.30;3.80;;;12.00;99.90;;;;;;4974408;28;20581;-75
2023/10/22 10:03:50;;;;;;;7.73;4.17;;;12.00;99.90;;;;;;4991486;28;20209;-75
2023/10/22 10:06:25;;;;;;;5.57;4.90;;;12.00;99.90;;;;;;4991628;28;20622;-76
2023/10/22 10:09:05;;;;;;;6.90;4.60;;;12.00;99.90;;;;;;4991939;28;20181;-78
2023/10/22 10:11:43;;;;;;;6.53;4.63;;;11.90;99.90;;;;;;4975604;28;20196;-80
2023/10/22 10:14:57;;;;;;;15.20;6.50;;;12.00;99.90;;;;;;4974181;28;20219;-77
2023/10/22 10:17:29;;;;;;;6.83;5.20;;;12.10;99.90;;;;;;4990111;28;20680;-79
2023/10/22 10:20:41;;;;;;;8.33;5.43;;;12.00;99.90;;;;;;4973517;28;20229;-78
2023/10/22 10:23:23;;;;;;;7.97;5.40;;;12.00;99.90;;;;;;4958758;28;20231;-80
2023/10/22 10:26:38;;;;;;;9.23;5.80;;;12.20;99.90;;;;;;4926574;29;20209;-77
2023/10/22 10:29:19;;;;;;;11.17;6.70;;;12.30;99.90;;;;;;4930762;29;20241;-75
2023/10/22 10:32:27;;;;;;;10.97;6.20;;;12.30;99.90;;;;;;4930443;29;20218;-79
2023/10/22 10:35:18;;;;;;;10.03;6.70;;;12.30;99.90;;;;;;4939914;28;20316;-79
2023/10/22 10:38:24;;;;;;;14.87;6.50;;;12.30;99.90;;;;;;4947371;29;20206;-78
2023/10/22 10:41:15;;;;;;;9.83;6.83;;;12.30;99.90;;;;;;4949824;29;20186;-77
2023/10/22 10:44:09;;;;;;;10.00;6.47;;;12.30;99.90;;;;;;4934391;29;20824;-83
2023/10/22 10:46:50;;;;;;;11.67;6.70;;;12.20;99.90;;;;;;4935541;29;20196;-77
2023/10/22 10:50:02;;;;;;;11.27;7.20;;;12.30;99.90;;;;;;4949483;29;20249;-75
2023/10/22 10:52:47;;;;;;;13.17;8.10;;;12.30;99.90;;;;;;4947381;29;20198;-80
2023/10/22 10:55:27;;;;;;;11.43;7.23;;;12.30;99.90;;;;;;4950855;29;20205;-80
2023/10/22 10:58:46;;;;;;;10.73;6.70;;;12.30;99.90;;;;;;4920752;29;20206;-76
2023/10/22 11:05:18;;;;;;;;;;;;;;;;;;;;;
2023/10/22 11:08:11;;;;;;;12.57;7.40;;;12.50;99.90;;;;;;4991487;28;20206;-79
2023/10/22 11:11:15;;;;;;;16.13;9.23;;;12.70;99.90;;;;;;4988571;28;20250;-80
2023/10/22 11:14:28;;;;;;;13.50;8.57;;;12.60;99.90;;;;;;5009135;28;20212;-76
2023/10/22 11:17:11;;;;;;;17.80;9.30;;;12.60;99.90;;;;;;4911003;29;20277;-77
2023/10/22 11:20:13;;;;;;;13.17;8.77;;;12.50;99.90;;;;;;4930703;29;20199;-77
2023/10/22 11:23:19;;;;;;;16.57;8.90;;;12.40;99.90;;;;;;4872836;29;20217;-76
2023/10/22 11:26:03;;;;;;;13.63;8.53;;;12.70;99.90;;;;;;4873960;29;20197;-78
2023/10/22 11:29:02;;;;;;;15.73;8.80;;;12.50;99.90;;;;;;4869823;29;20296;-83
2023/10/22 11:32:54;;;;;;;15.47;9.17;;;12.60;99.90;;;;;;4873132;29;20223;-85
2023/10/22 11:36:00;;;;;;;22.10;9.13;;;12.60;99.90;;;;;;4829479;29;20230;-84
2023/10/22 11:39:44;;;;;;;;;;;;;;;;;;;;;
2023/10/22 11:43:38;;;;;;;15.70;9.53;;;12.70;99.90;;;;;;4854022;29;20697;-83
2023/10/22 11:46:51;;;;;;;16.57;9.07;;;12.70;99.90;;;;;;4881560;29;20300;-85
2023/10/22 11:50:09;;;;;;;24.50;8.70;;;12.90;99.90;;;;;;4890632;29;20299;-83
2023/10/22 11:57:28;;;;;;;11.83;7.53;;;12.80;99.90;;;;;;4907383;29;20207;-87
2023/10/22 12:01:10;;;;;;;11.83;7.57;;;12.60;99.90;;;;;;4771011;29;20217;-81
2023/10/22 12:04:20;;;;;;;14.53;8.73;;;12.70;99.90;;;;;;4759511;30;20229;-76
2023/10/22 12:07:15;;;;;;;11.77;7.93;;;12.50;99.90;;;;;;4745021;30;20341;-77
2023/10/22 12:10:37;;;;;;;16.20;8.80;;;12.50;99.90;;;;;;4747518;30;20210;-89
2023/10/22 12:13:25;;;;;;;13.00;8.40;;;13.00;99.90;;;;;;4749953;30;20256;-83
2023/10/22 12:16:27;;;;;;;14.33;8.30;;;12.70;99.90;;;;;;4749766;30;20218;-82
2023/10/22 12:19:23;;;;;;;21.20;10.03;;;13.00;99.90;;;;;;4764059;30;20229;-78
2023/10/22 12:22:29;;;;;;;13.00;9.70;;;12.80;99.90;;;;;;4746317;30;20288;-79
2023/10/22 12:25:22;;;;;;;15.60;9.80;;;12.80;99.90;;;;;;4765390;30;20210;-79
2023/10/22 12:28:11;;;;;;;19.70;9.50;;;13.10;99.90;;;;;;4750419;30;20237;-79
2023/10/22 12:31:02;;;;;;;15.97;9.33;;;12.80;99.90;;;;;;4761818;30;20327;-80
2023/10/22 12:33:59;;;;;;;;;;;;;;;;;;;;;
2023/10/22 12:36:45;;;;;;;12.70;8.27;;;12.70;99.90;;;;;;4870074;29;20294;-77
2023/10/22 12:39:42;;;;;;;16.50;8.87;;;12.70;99.90;;;;;;4993190;28;20267;-79
2023/10/22 12:42:53;;;;;;;12.27;8.57;;;12.60;99.90;;;;;;4976887;28;20750;-86
2023/10/22 12:45:54;;;;;;;19.03;9.20;;;12.50;99.90;;;;;;4877872;29;20216;-79
2023/10/22 12:48:55;;;;;;;13.03;8.20;;;12.60;99.90;;;;;;4896520;29;20570;-81
2023/10/22 12:51:39;;;;;;;14.70;8.53;;;12.60;99.90;;;;;;4896593;29;20195;-81
2023/10/22 12:55:27;;;;;;;12.03;7.90;;;12.80;99.90;;;;;;4898405;29;20223;-79
2023/10/22 13:02:33;;;;;;;12.73;7.07;;;12.60;99.90;;;;;;4838590;29;20262;-79
2023/10/22 13:05:46;;;;;;;11.77;7.07;;;12.60;99.90;;;;;;4820942;29;20251;-78
2023/10/22 13:08:57;;;;;;;9.50;7.20;;;12.40;99.90;;;;;;4832526;29;20210;-78
2023/10/22 13:12:01;;;;;;;9.90;5.80;;;12.40;99.90;;;;;;4835143;29;20307;-78
2023/10/22 13:15:00;;;;;;;7.03;5.10;;;12.40;99.90;;;;;;4835299;29;20245;-82
2023/10/22 13:17:45;;;;;;;6.13;4.80;;;12.60;99.90;;;;;;4821512;29;20264;-82
2023/10/22 13:20:48;;;;;;;21.43;6.07;;;12.50;99.90;;;;;;4834132;29;20210;-82
2023/10/22 13:23:26;;;;;;;7.60;4.90;;;12.30;99.90;;;;;;4836521;29;20228;-80
2023/10/22 13:25:57;;;;;;;12.00;4.93;;;12.20;99.90;;;;;;4876643;29;20199;-81
2023/10/22 13:28:32;;;;;;;6.70;4.70;;;12.10;99.90;;;;;;4896677;29;20307;-82
2023/10/22 13:31:29;;;;;;;5.37;4.23;;;12.20;99.90;;;;;;4891743;29;20200;-83
2023/10/22 13:34:02;;;;;;;5.30;3.93;;;12.20;99.90;;;;;;4907083;29;20271;-82
2023/10/22 13:36:56;;;;;;;5.60;3.63;;;12.10;99.90;;;;;;4910602;29;20192;-80
2023/10/22 13:40:24;;;;;;;6.13;3.90;;;12.10;99.90;;;;;;4801282;29;20247;-78
2023/10/22 13:43:53;;;;;;;5.17;3.77;;;12.10;99.90;;;;;;4756258;29;20739;-83
2023/10/22 13:47:16;;;;;;;7.63;3.83;;;12.10;99.90;;;;;;4799953;29;20340;-82
2023/10/22 13:53:24;;;;;;;4.83;4.00;;;12.30;99.90;;;;;;4711185;30;20195;-82
2023/10/22 14:03:51;;;;;;;6.63;3.50;;;12.20;99.90;;;;;;4780760;30;20763;-81
2023/10/22 14:06:27;;;;;;;6.77;3.80;;;12.10;99.90;;;;;;4747490;30;20196;-82
2023/10/22 14:09:14;;;;;;;5.37;3.83;;;12.10;99.90;;;;;;4762552;30;20279;-80
2023/10/22 14:12:28;;;;;;;6.77;4.27;;;12.10;99.90;;;;;;4764541;30;20256;-79
2023/10/22 14:16:16;;;;;;;6.93;4.37;;;12.10;99.90;;;;;;4749363;30;20292;-81
2023/10/22 14:19:46;;;;;;;9.27;4.77;;;12.10;99.90;;;;;;4764905;30;20225;-79
2023/10/22 14:31:04;;;;;;;8.23;4.40;;;12.20;99.90;;;;;;4764687;30;20196;-79
2023/10/22 14:34:34;;;;;;;7.47;4.60;;;11.90;99.90;;;;;;4774988;30;20243;-80
2023/10/22 14:41:31;;;;;;;7.33;4.80;;;11.80;99.90;;;;;;4814214;29;20751;-78
2023/10/22 14:52:16;;;;;;;5.93;3.10;;;11.80;99.90;;;;;;4714974;30;20205;-78
2023/10/22 14:55:31;;;;;;;6.27;3.20;;;11.70;99.90;;;;;;4711962;30;20279;-79
2023/10/22 14:58:15;;;;;;;6.83;3.17;;;11.60;99.90;;;;;;4704415;30;20229;-78
2023/10/22 15:01:14;;;;;;;6.73;3.40;;;11.60;99.90;;;;;;4726967;30;20191;-77
2023/10/22 15:04:38;;;;;;;7.40;3.20;;;11.60;99.90;;;;;;4695330;30;20220;-77
2023/10/22 15:07:27;;;;;;;5.77;3.30;;;11.70;99.90;;;;;;4690784;30;20200;-77
2023/10/22 15:10:29;;;;;;;5.43;3.60;;;11.60;99.90;;;;;;4662980;30;20359;-79
2023/10/22 15:13:57;;;;;;;5.40;3.50;;;11.60;99.90;;;;;;4678461;30;20676;-79
2023/10/22 15:16:51;;;;;;;5.30;3.70;;;11.60;99.90;;;;;;4679799;30;20203;-78
2023/10/22 15:19:33;;;;;;;4.40;3.33;;;11.70;99.90;;;;;;4799033;29;20326;-77
2023/10/22 15:23:00;;;;;;;5.73;4.03;;;11.70;99.90;;;;;;4807755;29;20207;-78
2023/10/22 15:26:11;;;;;;;5.93;3.87;;;11.70;99.90;;;;;;4735588;30;20332;-79